createdAt,value
2023-10-06T00:00:49.617Z,20.70
2023-10-06T00:03:22.820Z,20.50
2023-10-06T00:05:55.130Z,20.40
2023-10-06T00:08:34.802Z,20.20
2023-10-06T00:11:17.304Z,20.10
2023-10-06T00:14:02.515Z,20.00
2023-10-06T00:16:40.876Z,19.80
2023-10-06T00:19:25.442Z,19.60
2023-10-06T00:22:05.257Z,19.50
2023-10-06T00:24:38.617Z,19.40
2023-10-06T00:27:13.045Z,19.40
2023-10-06T00:29:45.762Z,19.40
2023-10-06T00:32:25.516Z,19.30
2023-10-06T00:35:09.590Z,19.30
2023-10-06T00:37:42.239Z,19.40
2023-10-06T00:40:21.448Z,19.40
2023-10-06T00:42:58.520Z,19.50
2023-10-06T00:45:32.528Z,19.50
2023-10-06T00:48:10.614Z,19.50
2023-10-06T00:50:41.203Z,19.40
2023-10-06T00:53:15.625Z,19.40
2023-10-06T00:55:49.067Z,19.40
2023-10-06T00:58:21.235Z,19.40
2023-10-06T01:00:54.448Z,19.50
2023-10-06T01:03:27.253Z,19.40
2023-10-06T01:06:07.389Z,19.40
2023-10-06T01:08:38.147Z,19.40
2023-10-06T01:11:15.177Z,19.50
2023-10-06T01:13:55.217Z,19.40
2023-10-06T01:16:32.939Z,19.40
2023-10-06T01:19:27.991Z,19.40
2023-10-06T01:21:58.821Z,19.40
2023-10-06T01:24:34.134Z,19.30
2023-10-06T01:27:07.782Z,19.30
2023-10-06T01:29:38.294Z,19.30
2023-10-06T01:32:10.403Z,19.30
2023-10-06T01:34:41.854Z,19.30
2023-10-06T01:37:20.274Z,19.30
2023-10-06T01:39:53.435Z,19.30
2023-10-06T01:42:26.312Z,19.20
2023-10-06T01:44:56.587Z,19.10
2023-10-06T01:47:31.478Z,19.00
2023-10-06T01:50:01.941Z,18.90
2023-10-06T01:52:32.314Z,18.80
2023-10-06T01:55:11.745Z,18.70
2023-10-06T01:57:42.100Z,18.70
2023-10-06T02:00:17.660Z,18.80
2023-10-06T02:02:52.325Z,18.80
2023-10-06T02:05:22.674Z,18.90
2023-10-06T02:08:02.173Z,19.10
2023-10-06T02:10:34.646Z,19.10
2023-10-06T02:13:06.561Z,19.20
2023-10-06T02:15:37.045Z,19.30
2023-10-06T02:18:14.218Z,19.30
2023-10-06T02:20:48.295Z,19.40
2023-10-06T02:23:18.981Z,19.30
2023-10-06T02:25:51.219Z,19.30
2023-10-06T02:28:22.945Z,19.20
2023-10-06T02:30:56.275Z,19.10
2023-10-06T02:33:26.941Z,19.10
2023-10-06T02:35:58.363Z,19.00
2023-10-06T02:38:36.644Z,18.90
2023-10-06T02:41:12.517Z,18.90
2023-10-06T02:43:44.675Z,18.70
2023-10-06T02:46:16.893Z,18.60
2023-10-06T02:48:53.479Z,18.50
2023-10-06T02:51:23.320Z,18.40
2023-10-06T02:53:53.844Z,18.40
2023-10-06T02:56:31.164Z,18.30
2023-10-06T02:59:13.748Z,18.20
2023-10-06T03:01:49.845Z,18.20
2023-10-06T03:04:20.120Z,18.20
2023-10-06T03:06:55.303Z,18.20
2023-10-06T03:09:30.965Z,18.20
2023-10-06T03:12:06.879Z,18.30
2023-10-06T03:14:46.005Z,18.60
2023-10-06T03:17:16.347Z,18.70
2023-10-06T03:19:46.739Z,18.90
2023-10-06T03:22:17.973Z,19.00
2023-10-06T03:24:55.627Z,19.10
2023-10-06T03:27:28.474Z,19.10
2023-10-06T03:30:09.107Z,19.20
2023-10-06T03:32:41.629Z,19.20
2023-10-06T03:35:23.408Z,19.40
2023-10-06T03:38:09.794Z,19.40
2023-10-06T03:40:48.346Z,19.40
2023-10-06T03:43:33.734Z,19.50
2023-10-06T03:46:04.404Z,19.50
2023-10-06T03:48:34.726Z,19.40
2023-10-06T03:51:05.928Z,19.40
2023-10-06T03:53:36.226Z,19.40
2023-10-06T03:56:08.026Z,19.40
2023-10-06T03:58:40.199Z,19.40
2023-10-06T04:01:15.944Z,19.40
2023-10-06T04:03:46.709Z,19.30
2023-10-06T04:06:17.391Z,19.30
2023-10-06T04:08:48.644Z,19.30
2023-10-06T04:11:19.031Z,19.20
2023-10-06T04:13:52.730Z,19.20
2023-10-06T04:16:25.008Z,19.20
2023-10-06T04:18:55.388Z,19.10
2023-10-06T04:21:26.046Z,19.10
2023-10-06T04:23:56.583Z,19.00
2023-10-06T04:26:27.133Z,18.90
2023-10-06T04:29:01.155Z,18.80
2023-10-06T04:31:31.490Z,18.70
2023-10-06T04:34:03.210Z,18.70
2023-10-06T04:36:33.809Z,18.70
2023-10-06T04:39:04.307Z,18.70
2023-10-06T04:41:35.574Z,18.60
2023-10-06T04:44:08.936Z,18.60
2023-10-06T04:46:39.505Z,18.60
2023-10-06T04:49:11.474Z,18.70
2023-10-06T04:51:42.532Z,18.70
2023-10-06T04:54:12.858Z,18.60
2023-10-06T04:56:43.277Z,18.60
2023-10-06T04:59:15.766Z,18.50
2023-10-06T05:01:47.349Z,18.40
2023-10-06T05:04:17.742Z,18.40
2023-10-06T05:06:48.008Z,18.40
2023-10-06T05:09:20.146Z,18.30
2023-10-06T05:11:50.559Z,18.30
2023-10-06T05:14:22.462Z,18.30
2023-10-06T05:16:53.121Z,18.30
2023-10-06T05:19:23.483Z,18.30
2023-10-06T05:21:54.500Z,18.30
2023-10-06T05:24:25.376Z,18.20
2023-10-06T05:26:55.818Z,18.20
2023-10-06T05:29:27.893Z,18.10
2023-10-06T05:31:58.410Z,18.20
2023-10-06T05:34:31.160Z,18.40
2023-10-06T05:37:02.003Z,18.50
2023-10-06T05:39:35.449Z,18.60
2023-10-06T05:42:06.006Z,18.80
2023-10-06T05:44:38.769Z,19.00
2023-10-06T05:47:10.209Z,19.10
2023-10-06T05:49:49.764Z,19.10
2023-10-06T05:52:22.077Z,19.30
2023-10-06T05:54:52.362Z,19.40
2023-10-06T05:57:23.834Z,19.40
2023-10-06T05:59:57.302Z,19.50
2023-10-06T06:02:27.630Z,19.70
2023-10-06T06:04:59.945Z,19.70
2023-10-06T06:07:30.646Z,19.70
2023-10-06T06:10:00.920Z,19.80
2023-10-06T06:12:31.271Z,19.90
2023-10-06T06:15:03.213Z,20.00
2023-10-06T06:17:36.325Z,20.00
2023-10-06T06:20:18.263Z,20.10
2023-10-06T06:22:56.924Z,20.10
2023-10-06T06:25:28.115Z,20.20
2023-10-06T06:28:00.960Z,20.20
2023-10-06T06:30:35.134Z,20.20
2023-10-06T06:33:06.342Z,20.30
2023-10-06T06:35:37.408Z,20.30
2023-10-06T06:38:08.495Z,20.40
2023-10-06T06:40:40.357Z,20.40
2023-10-06T06:43:11.481Z,20.40
2023-10-06T06:45:43.607Z,20.40
2023-10-06T06:48:18.705Z,20.30
2023-10-06T06:50:50.331Z,20.40
2023-10-06T06:53:21.566Z,20.40
2023-10-06T06:55:52.884Z,20.40
2023-10-06T06:58:23.361Z,20.40
2023-10-06T07:00:55.882Z,20.40
2023-10-06T07:03:26.202Z,20.40
2023-10-06T07:05:58.248Z,20.40
2023-10-06T07:08:29.336Z,20.40
2023-10-06T07:10:59.844Z,20.40
2023-10-06T07:13:30.518Z,20.30
2023-10-06T07:16:02.757Z,20.30
2023-10-06T07:18:33.015Z,20.40
2023-10-06T07:21:03.622Z,20.40
2023-10-06T07:23:36.175Z,20.40
2023-10-06T07:26:12.802Z,20.40
2023-10-06T07:28:44.483Z,20.40
2023-10-06T07:31:18.628Z,20.50
2023-10-06T07:33:50.061Z,20.50
2023-10-06T07:36:21.263Z,20.50
2023-10-06T07:38:51.737Z,20.50
2023-10-06T07:41:22.457Z,20.50
2023-10-06T07:43:52.818Z,20.50
2023-10-06T07:46:24.975Z,20.40
2023-10-06T07:48:59.312Z,20.40
2023-10-06T07:51:30.303Z,20.40
2023-10-06T07:54:01.090Z,20.40
2023-10-06T07:56:32.313Z,20.40
2023-10-06T07:59:03.082Z,20.40
2023-10-06T08:01:36.863Z,20.40
2023-10-06T08:04:07.473Z,20.40
2023-10-06T08:06:38.301Z,20.40
2023-10-06T08:09:12.202Z,20.40
2023-10-06T08:11:44.157Z,20.40
2023-10-06T08:14:15.168Z,20.40
2023-10-06T08:16:47.704Z,20.40
2023-10-06T08:19:18.039Z,20.40
2023-10-06T08:21:48.595Z,20.40
2023-10-06T08:24:19.043Z,20.40
2023-10-06T08:26:50.844Z,20.40
2023-10-06T08:29:21.209Z,20.40
2023-10-06T08:31:55.044Z,20.40
2023-10-06T08:34:25.336Z,20.40
2023-10-06T08:36:56.137Z,20.40
2023-10-06T08:39:40.376Z,20.40
2023-10-06T08:42:14.464Z,20.30
2023-10-06T08:44:44.922Z,20.30
2023-10-06T08:47:28.185Z,20.20
2023-10-06T08:50:01.347Z,20.20
2023-10-06T08:52:34.800Z,20.20
2023-10-06T08:55:08.321Z,20.10
2023-10-06T08:57:38.733Z,20.10
2023-10-06T09:00:08.982Z,20.10
2023-10-06T09:02:40.934Z,20.00
2023-10-06T09:05:13.543Z,20.00
2023-10-06T09:08:02.169Z,19.90
2023-10-06T09:10:32.761Z,19.90
2023-10-06T09:13:06.052Z,19.80
2023-10-06T09:15:38.526Z,19.80
2023-10-06T09:18:22.368Z,19.80
2023-10-06T09:20:53.673Z,19.70
2023-10-06T09:23:34.301Z,19.60
2023-10-06T09:26:06.756Z,19.60
2023-10-06T09:28:38.268Z,19.50
2023-10-06T09:31:10.151Z,19.50
2023-10-06T09:33:50.494Z,19.50
2023-10-06T09:36:36.215Z,19.60
2023-10-06T09:39:16.199Z,19.50
2023-10-06T09:41:46.962Z,19.50
2023-10-06T09:44:20.177Z,19.40
2023-10-06T09:46:54.276Z,19.40
2023-10-06T09:49:27.688Z,19.40
2023-10-06T09:52:04.698Z,19.40
2023-10-06T09:54:36.607Z,19.50
2023-10-06T09:57:07.894Z,19.50
2023-10-06T09:59:40.301Z,19.50
2023-10-06T10:02:15.009Z,19.50
2023-10-06T10:04:49.032Z,19.50
2023-10-06T10:07:21.440Z,19.40
2023-10-06T10:09:51.951Z,19.40
2023-10-06T10:12:32.790Z,19.30
2023-10-06T10:15:17.898Z,19.30
2023-10-06T10:17:57.689Z,19.40
2023-10-06T10:20:31.205Z,19.30
2023-10-06T10:23:05.384Z,19.30
2023-10-06T10:25:37.914Z,19.30
2023-10-06T10:28:18.974Z,19.20
2023-10-06T10:30:58.482Z,19.10
2023-10-06T10:33:31.667Z,19.10
2023-10-06T10:36:27.537Z,19.00
2023-10-06T10:39:09.641Z,19.00
2023-10-06T10:41:41.194Z,18.90
2023-10-06T10:44:24.765Z,18.90
2023-10-06T10:47:02.206Z,18.90
2023-10-06T10:49:34.823Z,18.90
2023-10-06T10:52:10.373Z,18.90
2023-10-06T10:54:42.568Z,18.90
2023-10-06T10:57:15.970Z,18.90
2023-10-06T11:00:15.660Z,18.90
2023-10-06T11:02:48.259Z,18.90
2023-10-06T11:05:23.618Z,19.00
2023-10-06T11:08:05.216Z,19.00
2023-10-06T11:10:36.202Z,19.00
2023-10-06T11:13:17.505Z,19.10
2023-10-06T11:15:48.001Z,19.10
2023-10-06T11:18:20.005Z,19.10
2023-10-06T11:20:50.333Z,19.10
2023-10-06T11:23:22.237Z,19.10
2023-10-06T11:25:53.344Z,19.20
2023-10-06T11:28:23.600Z,19.30
2023-10-06T11:30:55.543Z,19.40
2023-10-06T11:33:25.928Z,19.40
2023-10-06T11:35:57.765Z,19.40
2023-10-06T11:38:29.965Z,19.40
2023-10-06T11:41:02.439Z,19.50
2023-10-06T11:43:32.954Z,19.50
2023-10-06T11:46:05.426Z,19.50
2023-10-06T11:48:37.761Z,19.60
2023-10-06T11:51:09.766Z,19.70
2023-10-06T11:53:43.451Z,19.70
2023-10-06T11:56:15.470Z,19.80
2023-10-06T11:58:47.202Z,19.80
2023-10-06T12:01:34.807Z,19.80
2023-10-06T12:04:07.089Z,19.90
2023-10-06T12:06:44.561Z,19.90
2023-10-06T12:09:27.119Z,20.10
2023-10-06T12:11:58.479Z,20.10
2023-10-06T12:14:29.185Z,20.10
2023-10-06T12:16:59.577Z,20.20
2023-10-06T12:19:30.249Z,20.20
2023-10-06T12:22:01.288Z,20.20
2023-10-06T12:24:34.488Z,20.20
2023-10-06T12:27:05.248Z,20.30
2023-10-06T12:29:35.624Z,20.30
2023-10-06T12:32:06.206Z,20.30
2023-10-06T12:34:37.575Z,20.40
2023-10-06T12:37:09.280Z,20.40
2023-10-06T12:39:41.616Z,20.40
2023-10-06T12:42:14.266Z,20.40
2023-10-06T12:44:44.754Z,20.40
2023-10-06T12:47:15.067Z,20.40
2023-10-06T12:49:47.638Z,20.40
2023-10-06T12:52:18.410Z,20.50
2023-10-06T12:54:52.839Z,20.60
2023-10-06T12:57:23.846Z,20.60
2023-10-06T12:59:54.096Z,20.60
2023-10-06T13:02:26.892Z,20.60
2023-10-06T13:04:59.420Z,20.60
2023-10-06T13:07:32.935Z,20.70
2023-10-06T13:10:08.694Z,20.70
2023-10-06T13:12:41.588Z,20.70
2023-10-06T13:15:14.735Z,20.70
2023-10-06T13:17:45.303Z,20.70
2023-10-06T13:20:17.983Z,20.70
2023-10-06T13:22:50.765Z,20.80
2023-10-06T13:25:22.775Z,20.80
2023-10-06T13:27:53.196Z,20.80
2023-10-06T13:30:23.647Z,20.90
2023-10-06T13:32:59.235Z,20.80
2023-10-06T13:35:29.825Z,20.90
2023-10-06T13:38:00.410Z,20.90
2023-10-06T13:40:33.061Z,21.00
2023-10-06T13:43:04.026Z,21.00
2023-10-06T13:45:34.667Z,21.00
2023-10-06T13:48:05.959Z,21.10
2023-10-06T13:50:38.556Z,21.10
2023-10-06T13:53:09.251Z,21.10
2023-10-06T13:55:41.278Z,21.10
2023-10-06T13:58:12.726Z,21.20
2023-10-06T14:00:43.086Z,21.30
2023-10-06T14:03:16.330Z,21.30
2023-10-06T14:05:53.446Z,21.40
2023-10-06T14:08:23.965Z,21.30
2023-10-06T14:10:56.274Z,21.40
2023-10-06T14:13:27.531Z,21.40
2023-10-06T14:16:10.971Z,21.30
2023-10-06T14:18:42.183Z,21.40
2023-10-06T14:21:15.200Z,21.50
2023-10-06T14:23:49.009Z,21.60
2023-10-06T14:26:25.012Z,21.70
2023-10-06T14:28:55.220Z,21.80
2023-10-06T14:31:35.580Z,21.90
2023-10-06T14:34:33.259Z,21.90
2023-10-06T14:37:13.289Z,22.10
2023-10-06T14:40:00.717Z,22.20
2023-10-06T14:42:49.870Z,22.20
2023-10-06T14:45:37.119Z,22.30
2023-10-06T14:48:07.867Z,22.30
2023-10-06T14:50:38.263Z,22.30
2023-10-06T14:53:08.588Z,22.30
2023-10-06T14:55:41.736Z,22.20
2023-10-06T14:58:14.642Z,22.10
2023-10-06T15:00:44.910Z,22.00
2023-10-06T15:03:19.450Z,21.90
2023-10-06T15:05:50.494Z,21.80
2023-10-06T15:08:20.943Z,21.60
2023-10-06T15:10:51.353Z,21.20
2023-10-06T15:13:24.125Z,20.90
2023-10-06T15:15:54.535Z,20.50
2023-10-06T15:18:25.928Z,20.30
2023-10-06T15:20:56.961Z,20.10
2023-10-06T15:23:28.349Z,20.10
2023-10-06T15:25:59.348Z,20.00
2023-10-06T15:28:38.516Z,20.00
2023-10-06T15:31:09.648Z,19.90
2023-10-06T15:33:40.335Z,19.80
2023-10-06T15:36:11.311Z,19.90
2023-10-06T15:38:42.047Z,20.00
2023-10-06T15:41:14.601Z,20.20
2023-10-06T15:43:48.158Z,20.40
2023-10-06T15:46:19.540Z,20.50
2023-10-06T15:48:49.908Z,20.70
2023-10-06T15:51:20.805Z,20.80
2023-10-06T15:53:52.588Z,20.90
2023-10-06T15:56:22.881Z,21.00
2023-10-06T15:58:57.556Z,21.10
2023-10-06T16:01:28.598Z,21.20
2023-10-06T16:03:59.925Z,21.30
2023-10-06T16:06:33.894Z,21.40
2023-10-06T16:09:10.022Z,21.60
2023-10-06T16:11:43.150Z,21.60
2023-10-06T16:14:17.700Z,21.70
2023-10-06T16:16:48.514Z,21.80
2023-10-06T16:19:26.034Z,21.90
2023-10-06T16:21:57.128Z,21.80
2023-10-06T16:24:28.909Z,21.90
2023-10-06T16:26:59.517Z,21.90
2023-10-06T16:29:31.682Z,22.00
2023-10-06T16:32:03.861Z,22.00
2023-10-06T16:34:34.400Z,22.00
2023-10-06T16:37:04.858Z,22.10
2023-10-06T16:39:38.207Z,22.20
2023-10-06T16:42:10.222Z,22.20
2023-10-06T16:44:42.231Z,22.20
2023-10-06T16:47:14.244Z,22.20
2023-10-06T16:49:45.647Z,22.30
2023-10-06T16:52:16.266Z,22.60
2023-10-06T16:54:48.337Z,22.70
2023-10-06T16:57:18.590Z,22.80
2023-10-06T16:59:50.718Z,22.70
2023-10-06T17:02:21.070Z,22.70
2023-10-06T17:04:51.894Z,22.60
2023-10-06T17:07:22.929Z,22.60
2023-10-06T17:09:53.248Z,22.70
2023-10-06T17:12:23.760Z,22.70
2023-10-06T17:14:56.335Z,22.70
2023-10-06T17:17:26.954Z,22.90
2023-10-06T17:19:58.579Z,22.80
2023-10-06T17:22:28.808Z,22.90
2023-10-06T17:24:59.041Z,22.90
2023-10-06T17:27:29.349Z,22.90
2023-10-06T17:30:02.004Z,22.80
2023-10-06T17:32:34.922Z,22.60
2023-10-06T17:35:05.801Z,22.60
2023-10-06T17:37:36.860Z,22.50
2023-10-06T17:40:08.191Z,22.50
2023-10-06T17:42:39.395Z,22.40
2023-10-06T17:45:12.560Z,22.40
2023-10-06T17:47:42.868Z,22.50
2023-10-06T17:50:14.590Z,22.50
2023-10-06T17:52:45.049Z,22.30
2023-10-06T17:55:17.112Z,21.90
2023-10-06T17:57:48.279Z,21.20
2023-10-06T18:00:20.731Z,20.60
2023-10-06T18:02:51.138Z,20.20
2023-10-06T18:05:22.131Z,19.90
2023-10-06T18:07:56.288Z,19.70
2023-10-06T18:10:26.708Z,19.70
2023-10-06T18:12:56.999Z,19.50
2023-10-06T18:15:29.973Z,19.40
2023-10-06T18:18:01.137Z,19.30
2023-10-06T18:20:31.731Z,19.20
2023-10-06T18:23:02.108Z,19.00
2023-10-06T18:25:35.986Z,18.90
2023-10-06T18:28:06.734Z,18.80
2023-10-06T18:30:38.923Z,18.70
2023-10-06T18:33:09.289Z,18.60
2023-10-06T18:35:39.668Z,18.50
2023-10-06T18:38:11.226Z,18.40
2023-10-06T18:40:41.871Z,18.40
2023-10-06T18:43:12.169Z,18.30
2023-10-06T18:45:44.185Z,18.30
2023-10-06T18:48:14.724Z,18.30
2023-10-06T18:50:45.095Z,18.30
2023-10-06T18:53:15.829Z,18.30
2023-10-06T18:55:46.422Z,18.30
2023-10-06T18:58:17.184Z,18.30
2023-10-06T19:00:51.352Z,18.30
2023-10-06T19:03:24.311Z,18.30
2023-10-06T19:06:05.371Z,18.30
2023-10-06T19:08:38.143Z,18.30
2023-10-06T19:11:13.994Z,18.30
2023-10-06T19:13:44.365Z,18.20
2023-10-06T19:16:17.052Z,18.20
2023-10-06T19:18:47.665Z,18.20
2023-10-06T19:21:18.599Z,18.20
2023-10-06T19:23:48.818Z,18.20
2023-10-06T19:26:21.493Z,18.20
2023-10-06T19:28:51.844Z,18.20
2023-10-06T19:31:23.952Z,18.30
2023-10-06T19:33:54.344Z,18.40
2023-10-06T19:36:24.699Z,18.40
2023-10-06T19:38:55.947Z,18.50
2023-10-06T19:41:28.241Z,18.50
2023-10-06T19:43:58.482Z,18.50
2023-10-06T19:46:30.570Z,18.40
2023-10-06T19:49:01.815Z,18.40
2023-10-06T19:51:32.125Z,18.40
2023-10-06T19:54:02.389Z,18.40
2023-10-06T19:56:32.647Z,18.40
2023-10-06T19:59:04.209Z,18.40
2023-10-06T20:01:36.937Z,18.40
2023-10-06T20:04:08.158Z,18.40
2023-10-06T20:06:39.948Z,18.30
2023-10-06T20:09:11.758Z,18.40
2023-10-06T20:11:43.059Z,18.40
2023-10-06T20:14:13.293Z,18.50
2023-10-06T20:16:47.450Z,18.50
2023-10-06T20:19:20.050Z,18.50
2023-10-06T20:21:50.928Z,18.40
2023-10-06T20:24:21.297Z,18.40
2023-10-06T20:26:52.301Z,18.40
2023-10-06T20:29:22.780Z,18.50
2023-10-06T20:31:55.203Z,18.50
2023-10-06T20:34:25.598Z,18.60
2023-10-06T20:36:57.386Z,18.60
2023-10-06T20:39:28.405Z,18.60
2023-10-06T20:41:58.789Z,18.70
2023-10-06T20:44:29.707Z,18.80
2023-10-06T20:47:01.802Z,18.90
2023-10-06T20:49:32.161Z,18.90
2023-10-06T20:52:02.540Z,18.90
2023-10-06T20:54:32.762Z,19.00
2023-10-06T20:57:06.526Z,19.00
2023-10-06T20:59:37.029Z,19.10
2023-10-06T21:02:09.009Z,19.10
2023-10-06T21:04:39.890Z,19.10
2023-10-06T21:07:10.849Z,19.10
2023-10-06T21:09:41.455Z,19.20
2023-10-06T21:12:12.077Z,19.40
2023-10-06T21:14:42.565Z,19.70
2023-10-06T21:17:14.514Z,20.00
2023-10-06T21:19:46.131Z,20.40
2023-10-06T21:22:16.880Z,20.60
2023-10-06T21:24:47.297Z,20.80
2023-10-06T21:27:18.172Z,20.80
2023-10-06T21:29:48.509Z,20.50
2023-10-06T21:32:20.600Z,20.10
2023-10-06T21:34:50.879Z,19.70
2023-10-06T21:37:21.282Z,19.40
2023-10-06T21:39:51.867Z,19.20
2023-10-06T21:42:22.552Z,19.00
2023-10-06T21:44:53.769Z,18.80
2023-10-06T21:47:26.283Z,18.70
2023-10-06T21:49:56.627Z,18.60
2023-10-06T21:52:28.501Z,18.50
2023-10-06T21:54:59.049Z,18.40
2023-10-06T21:57:32.567Z,18.40
2023-10-06T22:00:03.065Z,18.30
2023-10-06T22:02:35.077Z,18.30
2023-10-06T22:05:05.595Z,18.30
2023-10-06T22:07:36.014Z,18.20
2023-10-06T22:10:06.577Z,18.20
2023-10-06T22:12:39.122Z,18.20
2023-10-06T22:15:10.793Z,18.10
2023-10-06T22:17:43.008Z,18.00
2023-10-06T22:20:16.065Z,17.90
2023-10-06T22:22:46.379Z,17.80
2023-10-06T22:25:16.633Z,17.60
2023-10-06T22:27:48.018Z,17.50
2023-10-06T22:30:19.596Z,17.40
2023-10-06T22:32:51.759Z,17.30
2023-10-06T22:35:22.429Z,17.20
2023-10-06T22:37:52.809Z,17.00
2023-10-06T22:40:24.074Z,16.80
2023-10-06T22:42:54.888Z,16.70
2023-10-06T22:45:25.662Z,16.50
2023-10-06T22:47:57.617Z,16.40
2023-10-06T22:50:27.904Z,16.20
2023-10-06T22:52:58.648Z,16.20
2023-10-06T22:55:34.936Z,16.10
2023-10-06T22:58:05.593Z,16.00
2023-10-06T23:00:36.274Z,15.90
2023-10-06T23:03:09.679Z,15.90
2023-10-06T23:05:40.470Z,15.80
2023-10-06T23:08:11.531Z,15.70
2023-10-06T23:10:42.124Z,15.60
2023-10-06T23:13:12.736Z,15.60
2023-10-06T23:15:45.857Z,15.60
2023-10-06T23:18:18.884Z,15.80
2023-10-06T23:20:52.062Z,15.70
2023-10-06T23:23:22.704Z,15.70
2023-10-06T23:25:55.339Z,15.70
2023-10-06T23:28:25.746Z,15.80
2023-10-06T23:30:56.664Z,15.80
2023-10-06T23:33:31.260Z,15.80
2023-10-06T23:36:02.093Z,16.00
2023-10-06T23:38:32.967Z,16.10
2023-10-06T23:41:09.766Z,16.00
2023-10-06T23:43:43.620Z,16.00
2023-10-06T23:46:18.830Z,16.00
2023-10-06T23:48:54.746Z,16.00
2023-10-06T23:51:26.974Z,16.00
2023-10-06T23:54:00.244Z,16.00
2023-10-06T23:56:32.672Z,16.00
2023-10-06T23:59:11.457Z,16.00
